PIK weather

Glasgow Prestwick Airport
Glasgow, Scotland, United Kingdom

Public forecast

Using degrees Celsius for public forecast. Weather courtesy of forecast.io.

Current aviation weather report (METAR) for Glasgow Prestwick Airport

Retrieved 2019/11/12 03:50 UTC (59 minutes ago):

EGPK 120350Z 31006KT 9999 FEW014 BKN028 06/04 Q0989

Aviation forecast (TAF) for Glasgow Prestwick Airport

Retrieved 2019-11-12 00:00 UTC (5 hours ago):

TAF EGPK 112302Z 1200/1224 28019KT 9999 SCT020 TEMPO 1200/1202 6000 SHRA BKN012 PROB40 TEMPO 1200/1202 30023G35KT BECMG 1202/1204 35012KT TEMPO 1205/1210 6000 SHRA BKN010